Time;durP1;ratioP1;P1;durP2;ratioP2;P2;SDS_P1;SDS_P2;PMS_P1;PMS_P2;Temp;Humidity;BMP_temperature;BMP_pressure;BME280_temperature;BME280_humidity;BME280_pressure;Samples;Min_cycle;Max_cycle;Signal;HPM_P1;HPM_P2
2022/07/02 00:00:47;;;;;;;5.82;4.35;;;17.40;67.20;;;;;;5115385;28;20024;-72
2022/07/02 00:03:15;;;;;;;7.40;4.43;;;17.40;67.30;;;;;;5115172;28;20087;-72
2022/07/02 00:05:58;;;;;;;5.43;4.55;;;17.30;67.20;;;;;;5115142;28;20024;-75
2022/07/02 00:08:25;;;;;;;8.00;4.43;;;17.30;67.60;;;;;;5115104;28;20016;-76
2022/07/02 00:10:51;;;;;;;6.85;4.57;;;17.30;67.40;;;;;;5097105;28;20039;-73
2022/07/02 00:13:18;;;;;;;7.32;4.78;;;17.20;67.60;;;;;;5114851;28;20032;-72
2022/07/02 00:15:44;;;;;;;5.95;4.45;;;17.30;67.50;;;;;;5115047;28;20054;-72
2022/07/02 00:18:11;;;;;;;4.78;4.22;;;17.30;67.50;;;;;;5114863;28;20104;-72
2022/07/02 00:20:37;;;;;;;7.28;4.53;;;17.30;67.00;;;;;;5114954;28;20021;-72
2022/07/02 00:23:03;;;;;;;5.60;4.43;;;17.30;67.70;;;;;;5114789;28;20032;-72
2022/07/02 00:25:40;;;;;;;6.97;4.60;;;17.40;66.80;;;;;;5114876;28;20056;-73
2022/07/02 00:28:07;;;;;;;6.45;4.85;;;17.40;66.70;;;;;;5114821;28;20040;-73
2022/07/02 00:30:33;;;;;;;7.18;4.82;;;17.40;66.80;;;;;;5114641;28;20031;-72
2022/07/02 00:33:01;;;;;;;6.70;5.00;;;17.30;66.40;;;;;;5114358;28;20048;-75
2022/07/02 00:35:27;;;;;;;7.53;5.28;;;17.30;66.40;;;;;;5114537;28;20031;-75
2022/07/02 00:37:53;;;;;;;7.95;5.70;;;17.20;66.60;;;;;;5114510;28;20020;-76
2022/07/02 00:40:20;;;;;;;11.20;5.38;;;17.20;67.00;;;;;;5114479;28;20039;-73
2022/07/02 00:42:47;;;;;;;9.50;5.90;;;17.10;67.10;;;;;;5114389;28;20115;-73
2022/07/02 00:45:12;;;;;;;8.70;5.70;;;17.10;67.20;;;;;;5114364;28;20042;-72
2022/07/02 00:47:41;;;;;;;9.23;5.80;;;17.10;67.40;;;;;;5114309;28;20467;-72
2022/07/02 00:50:07;;;;;;;7.65;6.15;;;17.00;67.60;;;;;;5114284;28;20012;-73
2022/07/02 00:52:34;;;;;;;9.90;6.20;;;16.90;67.90;;;;;;5114394;28;20017;-72
2022/07/02 00:55:00;;;;;;;8.70;6.05;;;16.90;69.00;;;;;;5096178;28;20036;-72
2022/07/02 00:57:25;;;;;;;6.78;5.60;;;16.90;68.30;;;;;;5114124;28;20099;-72
2022/07/02 00:59:51;;;;;;;6.35;5.28;;;16.90;68.30;;;;;;5114085;28;20051;-73
2022/07/02 01:02:21;;;;;;;9.75;5.50;;;16.90;68.20;;;;;;5114072;28;20026;-72
2022/07/02 01:04:49;;;;;;;8.13;4.78;;;17.00;68.10;;;;;;5114079;28;20051;-73
2022/07/02 01:07:16;;;;;;;7.32;4.93;;;17.00;67.90;;;;;;5113947;28;20188;-72
2022/07/02 01:12:33;;;;;;;5.25;4.50;;;16.90;67.30;;;;;;5114036;28;20062;-72
2022/07/02 01:14:59;;;;;;;8.32;4.97;;;16.70;67.70;;;;;;5113796;28;20020;-74
2022/07/02 01:17:25;;;;;;;5.53;4.50;;;16.70;68.00;;;;;;5113789;28;20165;-75
2022/07/02 01:19:51;;;;;;;7.50;5.07;;;16.60;69.30;;;;;;5113818;28;20016;-75
2022/07/02 01:22:24;;;;;;;10.15;5.20;;;16.50;68.80;;;;;;5113731;28;20380;-75
2022/07/02 01:24:53;;;;;;;7.47;4.80;;;16.40;69.10;;;;;;5113128;28;20043;-73
2022/07/02 01:27:20;;;;;;;6.95;4.72;;;16.50;68.80;;;;;;5113669;28;20024;-75
2022/07/02 01:29:46;;;;;;;7.45;4.97;;;16.50;68.80;;;;;;5113548;28;20032;-73
2022/07/02 01:32:12;;;;;;;7.55;4.70;;;16.60;68.60;;;;;;5113462;28;20058;-72
2022/07/02 01:34:40;;;;;;;5.15;4.43;;;16.60;69.10;;;;;;5113493;28;20047;-72
2022/07/02 01:37:10;;;;;;;7.70;4.72;;;16.60;68.20;;;;;;5113548;28;20012;-72
2022/07/02 01:39:37;;;;;;;6.13;4.78;;;16.60;68.40;;;;;;5113708;28;20020;-75
2022/07/02 01:42:04;;;;;;;6.05;4.75;;;16.60;68.40;;;;;;5095883;28;20044;-73
2022/07/02 01:44:30;;;;;;;7.32;4.80;;;16.50;68.40;;;;;;5113519;28;20039;-72
2022/07/02 01:46:56;;;;;;;8.73;4.95;;;16.50;68.60;;;;;;5113449;28;20044;-72
2022/07/02 01:49:22;;;;;;;9.75;4.63;;;16.40;68.70;;;;;;5113382;28;20032;-72
2022/07/02 01:51:47;;;;;;;9.00;4.60;;;16.30;68.80;;;;;;5113466;28;20033;-72
2022/07/02 01:54:13;;;;;;;6.53;4.60;;;16.30;69.30;;;;;;5113286;28;20068;-72
2022/07/02 01:56:40;;;;;;;7.47;4.78;;;16.30;69.00;;;;;;5113324;28;20085;-73
2022/07/02 01:59:06;;;;;;;6.80;5.07;;;16.40;69.40;;;;;;5113376;28;20107;-72
2022/07/02 02:01:32;;;;;;;5.93;4.65;;;16.40;68.70;;;;;;5113295;28;20031;-72
2022/07/02 02:03:58;;;;;;;5.80;4.97;;;16.20;68.80;;;;;;5113415;28;20107;-72
2022/07/02 02:06:24;;;;;;;8.07;4.82;;;16.20;69.20;;;;;;5113243;28;20032;-74
2022/07/02 02:08:49;;;;;;;9.02;4.63;;;16.20;69.30;;;;;;5113214;28;20024;-75
2022/07/02 02:11:15;;;;;;;9.70;5.03;;;16.10;69.20;;;;;;5113151;28;20020;-75
2022/07/02 02:13:41;;;;;;;7.85;4.70;;;16.10;69.10;;;;;;5113078;28;20028;-75
2022/07/02 02:16:06;;;;;;;6.53;4.60;;;16.20;69.00;;;;;;5113147;28;20039;-75
2022/07/02 02:18:33;;;;;;;6.93;4.90;;;16.20;69.10;;;;;;5113121;28;20032;-75
2022/07/02 02:20:58;;;;;;;7.18;5.30;;;16.00;69.80;;;;;;5113114;28;20016;-74
2022/07/02 02:23:24;;;;;;;4.97;4.47;;;16.00;70.10;;;;;;5095164;28;20052;-72
2022/07/02 02:25:50;;;;;;;7.07;4.63;;;16.00;69.80;;;;;;5113058;28;20032;-72
2022/07/02 02:28:15;;;;;;;7.75;4.70;;;16.00;69.80;;;;;;5112939;28;20024;-72
2022/07/02 02:30:41;;;;;;;7.10;4.75;;;16.00;69.90;;;;;;5113012;28;20032;-72
2022/07/02 02:33:06;;;;;;;7.28;5.10;;;16.00;69.60;;;;;;5112778;28;20055;-72
2022/07/02 02:35:32;;;;;;;8.32;4.70;;;16.10;69.60;;;;;;5115395;28;20020;-75
2022/07/02 02:37:58;;;;;;;7.93;4.82;;;15.90;69.70;;;;;;5116865;28;20020;-75
2022/07/02 02:40:23;;;;;;;6.78;4.55;;;15.80;70.00;;;;;;5116799;28;20390;-75
2022/07/02 02:42:49;;;;;;;9.38;5.05;;;15.80;69.90;;;;;;5098819;28;20046;-73
2022/07/02 02:45:15;;;;;;;6.95;4.70;;;15.90;69.70;;;;;;5116832;28;20509;-72
2022/07/02 02:47:40;;;;;;;6.75;5.13;;;15.80;70.20;;;;;;5116681;28;20047;-74
2022/07/02 02:50:06;;;;;;;8.40;4.72;;;15.70;69.80;;;;;;5116720;28;20470;-75
2022/07/02 02:52:32;;;;;;;8.15;4.43;;;15.80;70.00;;;;;;5116583;28;20552;-75
2022/07/02 02:54:58;;;;;;;10.70;4.50;;;15.80;69.70;;;;;;5116454;28;20032;-75
2022/07/02 02:57:23;;;;;;;7.28;4.78;;;15.90;69.40;;;;;;5116459;28;20029;-75
2022/07/02 02:59:49;;;;;;;6.65;4.47;;;15.90;69.30;;;;;;5116440;28;20048;-75
2022/07/02 03:02:14;;;;;;;6.57;4.68;;;15.90;69.20;;;;;;5116423;28;20074;-75
2022/07/02 03:04:40;;;;;;;5.93;4.50;;;15.90;69.10;;;;;;5116346;28;20020;-75
2022/07/02 03:07:06;;;;;;;7.72;5.10;;;16.00;69.00;;;;;;5116283;28;20380;-75
2022/07/02 03:09:31;;;;;;;5.57;4.80;;;15.90;69.20;;;;;;5116263;28;20069;-73
2022/07/02 03:11:57;;;;;;;6.00;4.70;;;15.80;69.30;;;;;;5116192;28;20024;-75
2022/07/02 03:14:22;;;;;;;6.53;4.85;;;15.80;69.30;;;;;;5116079;28;20036;-75
2022/07/02 03:16:48;;;;;;;7.38;4.57;;;15.70;70.40;;;;;;5116216;28;20020;-75
2022/07/02 03:19:14;;;;;;;6.53;4.47;;;15.70;69.70;;;;;;5116046;28;20028;-75
2022/07/02 03:21:39;;;;;;;7.53;5.18;;;15.80;69.60;;;;;;5116019;28;20024;-75
2022/07/02 03:24:05;;;;;;;5.85;4.15;;;15.90;69.50;;;;;;5115972;28;20471;-75
2022/07/02 03:26:31;;;;;;;5.88;4.85;;;15.80;69.30;;;;;;5115952;28;20036;-73
2022/07/02 03:28:57;;;;;;;8.60;5.22;;;15.70;69.60;;;;;;5115814;28;20040;-72
2022/07/02 03:31:22;;;;;;;7.07;5.30;;;15.60;69.90;;;;;;5115669;28;20024;-73
2022/07/02 03:33:48;;;;;;;6.05;4.47;;;15.50;70.50;;;;;;5115790;28;20073;-74
2022/07/02 03:36:13;;;;;;;7.32;5.63;;;15.40;71.00;;;;;;5097860;28;20031;-75
2022/07/02 03:38:39;;;;;;;7.32;5.30;;;15.20;71.60;;;;;;5115688;28;20028;-75
2022/07/02 03:41:08;;;;;;;9.57;5.95;;;15.10;71.90;;;;;;5115638;28;20075;-75
2022/07/02 03:43:34;;;;;;;6.38;5.65;;;15.00;72.50;;;;;;5115586;28;20058;-73
2022/07/02 03:46:02;;;;;;;8.40;5.93;;;15.00;73.00;;;;;;5114892;28;20077;-75
2022/07/02 03:48:28;;;;;;;10.55;6.03;;;15.00;73.30;;;;;;5115579;28;20028;-75
2022/07/02 03:50:54;;;;;;;9.23;5.75;;;14.90;73.60;;;;;;5115475;28;20090;-75
2022/07/02 03:53:19;;;;;;;8.48;5.70;;;14.90;73.80;;;;;;5115207;28;20043;-75
2022/07/02 03:55:45;;;;;;;9.25;5.93;;;14.80;73.90;;;;;;5115560;28;20024;-73
2022/07/02 03:58:11;;;;;;;12.48;5.90;;;14.90;74.50;;;;;;5097511;28;20127;-75
2022/07/02 04:00:36;;;;;;;9.40;6.18;;;14.80;75.00;;;;;;5115279;28;20024;-75
2022/07/02 04:03:02;;;;;;;8.48;5.63;;;14.80;75.20;;;;;;5115215;28;20039;-76
2022/07/02 04:05:28;;;;;;;8.30;5.90;;;14.80;75.90;;;;;;5115172;28;20013;-75
2022/07/02 04:07:54;;;;;;;7.43;5.55;;;14.80;76.20;;;;;;5115118;28;20047;-75
2022/07/02 04:10:19;;;;;;;9.55;6.43;;;14.80;77.50;;;;;;5115087;28;20039;-75
2022/07/02 04:12:45;;;;;;;7.03;5.63;;;14.80;76.80;;;;;;5115011;28;20059;-75
2022/07/02 04:15:11;;;;;;;8.25;6.07;;;14.80;76.80;;;;;;5114948;28;20028;-75
2022/07/02 04:17:37;;;;;;;8.27;6.40;;;14.80;77.10;;;;;;5114958;28;20050;-75
2022/07/02 04:20:03;;;;;;;8.90;6.05;;;14.90;77.20;;;;;;5114886;28;20025;-75
2022/07/02 04:22:28;;;;;;;8.93;6.45;;;14.90;77.10;;;;;;5114866;28;20048;-75
2022/07/02 04:24:54;;;;;;;9.82;6.68;;;14.90;77.00;;;;;;5114747;28;20042;-75
2022/07/02 04:27:20;;;;;;;6.90;6.18;;;15.00;77.00;;;;;;5114735;28;20375;-73
2022/07/02 04:29:46;;;;;;;10.23;6.68;;;15.10;77.00;;;;;;5114655;28;20024;-75
2022/07/02 04:32:13;;;;;;;10.25;6.53;;;15.20;77.00;;;;;;5114497;28;20071;-75
2022/07/02 04:34:38;;;;;;;7.47;6.32;;;15.30;77.00;;;;;;5114523;28;20032;-75
2022/07/02 04:37:04;;;;;;;7.60;6.50;;;15.30;77.00;;;;;;5114538;28;20035;-75
2022/07/02 04:39:30;;;;;;;10.13;7.00;;;15.40;76.90;;;;;;5114500;28;20031;-75
2022/07/02 04:41:57;;;;;;;11.05;6.40;;;15.40;76.60;;;;;;5114662;28;20462;-75
2022/07/02 04:44:24;;;;;;;8.25;6.90;;;15.50;76.60;;;;;;5114470;28;20051;-75
2022/07/02 04:46:49;;;;;;;9.90;7.07;;;15.60;76.30;;;;;;5114370;28;20067;-75
2022/07/02 04:49:15;;;;;;;11.13;6.85;;;15.60;75.80;;;;;;5114329;28;20047;-75
2022/07/02 04:51:41;;;;;;;10.07;7.43;;;15.70;75.50;;;;;;5114330;28;20039;-73
2022/07/02 04:54:06;;;;;;;9.27;7.07;;;15.70;75.40;;;;;;5114178;28;20036;-75
2022/07/02 04:56:32;;;;;;;8.02;6.60;;;15.80;75.20;;;;;;5096319;28;20024;-73
2022/07/02 04:58:57;;;;;;;13.02;7.18;;;15.80;75.20;;;;;;5113272;28;20028;-73
2022/07/02 05:01:23;;;;;;;10.48;7.50;;;15.80;75.70;;;;;;5114125;28;20083;-73
2022/07/02 05:03:51;;;;;;;10.00;7.38;;;15.80;75.80;;;;;;5114100;28;20032;-76
2022/07/02 05:06:17;;;;;;;12.75;7.10;;;15.80;75.90;;;;;;5114053;28;20016;-74
2022/07/02 05:08:42;;;;;;;14.93;8.63;;;15.80;75.90;;;;;;5114013;28;20047;-75
2022/07/02 05:11:08;;;;;;;13.52;7.70;;;15.80;75.80;;;;;;5113974;28;20032;-75
2022/07/02 05:13:34;;;;;;;10.68;7.38;;;15.80;76.00;;;;;;5113841;28;20090;-73
2022/07/02 05:15:59;;;;;;;9.75;7.45;;;15.80;77.00;;;;;;5113923;28;20024;-76
2022/07/02 05:18:25;;;;;;;12.27;7.78;;;15.80;76.10;;;;;;5113910;28;20050;-75
2022/07/02 05:20:51;;;;;;;8.73;7.20;;;15.90;76.30;;;;;;5113860;28;20051;-76
2022/07/02 05:23:16;;;;;;;11.15;7.82;;;15.90;76.20;;;;;;5113764;28;20047;-76
2022/07/02 05:25:42;;;;;;;9.98;8.18;;;16.00;76.30;;;;;;5095914;28;20032;-75
2022/07/02 05:28:08;;;;;;;11.52;7.30;;;16.10;77.10;;;;;;5113661;28;20035;-75
2022/07/02 05:30:33;;;;;;;11.68;7.30;;;16.10;76.40;;;;;;5113661;28;20424;-75
2022/07/02 05:32:59;;;;;;;11.15;7.68;;;16.10;76.10;;;;;;5113460;28;20048;-76
2022/07/02 05:35:25;;;;;;;11.50;7.18;;;16.10;76.40;;;;;;5113712;28;20031;-76
2022/07/02 05:37:50;;;;;;;10.00;7.15;;;16.30;75.80;;;;;;5113547;28;20032;-75
2022/07/02 05:40:16;;;;;;;11.80;7.10;;;16.20;75.90;;;;;;5113505;28;20051;-73
2022/07/02 05:42:41;;;;;;;9.77;7.15;;;16.30;75.40;;;;;;5113518;28;20082;-73
2022/07/02 05:45:07;;;;;;;10.77;7.80;;;16.40;75.10;;;;;;5113576;28;20052;-73
2022/07/02 05:47:33;;;;;;;8.75;6.50;;;16.50;74.90;;;;;;5113463;28;20063;-73
2022/07/02 05:49:59;;;;;;;9.73;6.78;;;16.60;74.80;;;;;;5113484;28;20040;-73
2022/07/02 05:52:24;;;;;;;11.10;6.68;;;16.60;74.70;;;;;;5113422;28;20028;-75
2022/07/02 05:54:50;;;;;;;7.85;6.10;;;16.60;74.20;;;;;;5113338;28;20032;-75
2022/07/02 05:57:15;;;;;;;8.65;5.68;;;16.70;74.30;;;;;;5113347;28;20410;-75
2022/07/02 05:59:41;;;;;;;11.25;6.28;;;16.80;73.50;;;;;;5113342;28;20016;-76
2022/07/02 06:02:07;;;;;;;7.65;6.10;;;16.80;73.20;;;;;;5113309;28;20556;-75
2022/07/02 06:04:33;;;;;;;9.77;6.07;;;16.90;73.20;;;;;;5113279;28;20032;-75
2022/07/02 06:09:44;;;;;;;6.60;5.90;;;17.00;73.50;;;;;;5114555;28;20061;-76
2022/07/02 06:12:10;;;;;;;7.28;5.85;;;17.00;72.80;;;;;;5117346;28;20069;-75
2022/07/02 06:14:35;;;;;;;8.13;6.60;;;17.10;73.00;;;;;;5117283;28;20035;-75
2022/07/02 06:17:01;;;;;;;10.40;7.30;;;17.10;72.80;;;;;;5117316;28;20097;-75
2022/07/02 06:19:27;;;;;;;8.55;6.22;;;17.20;72.90;;;;;;5117373;28;20021;-75
2022/07/02 06:21:52;;;;;;;8.23;5.65;;;17.30;72.70;;;;;;5117194;28;20040;-75
2022/07/02 06:24:18;;;;;;;8.63;6.50;;;17.40;72.20;;;;;;5117216;28;20042;-75
2022/07/02 06:26:44;;;;;;;8.60;6.68;;;17.40;71.60;;;;;;5117153;28;20035;-75
2022/07/02 06:29:09;;;;;;;11.05;6.50;;;17.50;72.20;;;;;;5117036;28;20035;-75
2022/07/02 06:31:36;;;;;;;8.27;5.97;;;17.60;72.20;;;;;;5116765;28;20063;-75
2022/07/02 06:34:02;;;;;;;6.82;5.90;;;17.60;71.30;;;;;;5117128;28;20039;-72
2022/07/02 06:36:28;;;;;;;7.45;6.25;;;17.60;70.50;;;;;;5116892;28;20375;-74
2022/07/02 06:38:54;;;;;;;9.50;6.38;;;17.70;70.70;;;;;;5116924;28;20020;-74
2022/07/02 06:44:04;;;;;;;7.93;6.18;;;17.90;70.40;;;;;;5117089;28;20060;-73
2022/07/02 06:46:30;;;;;;;9.75;5.78;;;17.90;70.90;;;;;;5116707;28;20040;-74
2022/07/02 06:48:56;;;;;;;8.30;5.60;;;17.90;69.90;;;;;;5116719;28;20054;-73
2022/07/02 06:51:22;;;;;;;6.03;4.00;;;18.00;68.80;;;;;;5116620;28;20099;-73
2022/07/02 06:53:48;;;;;;;7.78;5.90;;;17.90;66.00;;;;;;5116546;28;20024;-73
2022/07/02 06:56:13;;;;;;;8.32;4.60;;;18.00;67.80;;;;;;5116550;28;20034;-74
2022/07/02 06:58:39;;;;;;;7.40;4.88;;;18.20;67.40;;;;;;5116514;28;20024;-75
2022/07/02 07:01:05;;;;;;;6.30;3.20;;;18.20;68.20;;;;;;5116490;28;20028;-74
2022/07/02 07:03:30;;;;;;;4.20;3.00;;;18.20;64.40;;;;;;5098513;28;20056;-73
2022/07/02 07:05:56;;;;;;;5.40;2.70;;;18.20;64.60;;;;;;5116370;28;20036;-73
2022/07/02 07:08:21;;;;;;;3.45;2.35;;;18.20;64.10;;;;;;5116340;28;20032;-73
2022/07/02 07:10:47;;;;;;;5.63;2.25;;;18.30;63.90;;;;;;5116283;28;20028;-73
2022/07/02 07:13:13;;;;;;;4.45;1.90;;;18.40;62.60;;;;;;5116158;28;20035;-74
2022/07/02 07:15:38;;;;;;;3.55;1.88;;;18.30;61.00;;;;;;5098162;28;20039;-74
2022/07/02 07:18:04;;;;;;;3.47;1.70;;;18.40;61.70;;;;;;5116141;28;20024;-74
2022/07/02 07:20:31;;;;;;;4.03;2.00;;;18.40;62.20;;;;;;5115841;28;20024;-73
2022/07/02 07:22:56;;;;;;;4.50;1.90;;;18.60;62.90;;;;;;5115359;28;20016;-73
2022/07/02 07:25:23;;;;;;;3.33;2.03;;;18.60;62.20;;;;;;5116037;28;20029;-73
2022/07/02 07:27:48;;;;;;;2.83;1.70;;;18.70;62.80;;;;;;5115820;28;20064;-74
2022/07/02 07:30:15;;;;;;;5.05;1.90;;;18.80;62.00;;;;;;5115886;28;20028;-73
2022/07/02 07:32:41;;;;;;;3.28;1.73;;;18.90;61.90;;;;;;5115649;28;20078;-73
2022/07/02 07:35:08;;;;;;;2.55;2.00;;;18.90;61.10;;;;;;5115764;28;20024;-74
2022/07/02 07:37:36;;;;;;;3.97;1.70;;;19.00;59.10;;;;;;5115804;28;20045;-75
2022/07/02 07:40:03;;;;;;;3.22;1.77;;;19.00;59.50;;;;;;5115760;28;20013;-74
2022/07/02 07:42:29;;;;;;;8.60;2.05;;;19.10;58.70;;;;;;5115679;28;20046;-73
2022/07/02 07:44:55;;;;;;;4.40;1.60;;;19.10;57.40;;;;;;5115467;28;20016;-73
2022/07/02 07:47:20;;;;;;;3.80;1.73;;;19.10;59.10;;;;;;5115590;28;20025;-73
2022/07/02 07:49:46;;;;;;;3.97;1.83;;;19.20;59.40;;;;;;5115540;28;20514;-73
2022/07/02 07:52:11;;;;;;;3.17;1.92;;;19.20;58.20;;;;;;5097522;28;20032;-73
2022/07/02 07:54:38;;;;;;;6.78;1.90;;;19.30;57.70;;;;;;5115331;28;20032;-73
2022/07/02 07:57:04;;;;;;;4.22;1.70;;;19.40;57.60;;;;;;5115402;28;20012;-73
2022/07/02 07:59:29;;;;;;;3.05;1.60;;;19.40;57.60;;;;;;5115344;28;20021;-73
2022/07/02 08:01:55;;;;;;;2.80;1.35;;;19.40;56.60;;;;;;5115325;28;20076;-73
2022/07/02 08:04:21;;;;;;;3.65;2.00;;;19.40;56.70;;;;;;5097457;28;20032;-71
2022/07/02 08:06:46;;;;;;;3.35;1.92;;;19.40;55.50;;;;;;5115206;28;20032;-71
2022/07/02 08:09:12;;;;;;;3.75;2.42;;;19.50;56.50;;;;;;5115126;28;20035;-71
2022/07/02 08:11:38;;;;;;;4.72;2.40;;;19.60;57.60;;;;;;5115125;28;20036;-71
2022/07/02 08:14:04;;;;;;;5.15;1.65;;;19.70;58.80;;;;;;5115055;28;20058;-71
2022/07/02 08:16:30;;;;;;;4.82;1.40;;;19.80;57.50;;;;;;5115051;28;20026;-72
2022/07/02 08:18:56;;;;;;;5.30;1.92;;;19.90;58.60;;;;;;5115002;28;20024;-72
2022/07/02 08:21:21;;;;;;;6.97;1.48;;;19.90;55.60;;;;;;5115042;28;20043;-72
2022/07/02 08:23:47;;;;;;;2.58;1.60;;;20.00;56.90;;;;;;5114921;28;20020;-71
2022/07/02 08:26:14;;;;;;;5.85;1.85;;;20.00;58.70;;;;;;5114933;28;20538;-70
2022/07/02 08:28:39;;;;;;;2.70;1.52;;;20.10;58.20;;;;;;5114860;28;20028;-72
2022/07/02 08:31:05;;;;;;;3.78;1.70;;;20.10;56.40;;;;;;5114821;28;20031;-72
2022/07/02 08:33:31;;;;;;;4.35;1.65;;;20.10;56.40;;;;;;5114336;28;20056;-73
2022/07/02 08:35:56;;;;;;;3.88;1.60;;;20.20;57.50;;;;;;5114719;28;20028;-72
2022/07/02 08:38:22;;;;;;;3.33;1.70;;;20.30;57.90;;;;;;5096740;28;20044;-74
2022/07/02 08:40:49;;;;;;;4.85;1.40;;;20.30;57.90;;;;;;5114584;28;20044;-75
2022/07/02 08:43:16;;;;;;;3.38;1.52;;;20.30;58.00;;;;;;5114600;28;20040;-75
2022/07/02 08:45:43;;;;;;;3.17;1.45;;;20.40;57.60;;;;;;5114567;28;20020;-75
2022/07/02 08:48:11;;;;;;;3.90;1.60;;;20.50;59.30;;;;;;5114478;28;20031;-75
2022/07/02 08:50:37;;;;;;;5.72;1.35;;;20.60;59.60;;;;;;5114447;28;20025;-74
2022/07/02 08:53:04;;;;;;;3.83;1.40;;;20.70;58.60;;;;;;5114338;28;20031;-75
2022/07/02 08:55:33;;;;;;;3.03;1.33;;;20.80;57.20;;;;;;5114354;28;20023;-75
2022/07/02 08:57:59;;;;;;;2.78;1.30;;;20.70;58.20;;;;;;5114303;28;20023;-75
2022/07/02 09:00:26;;;;;;;3.08;1.35;;;20.80;58.70;;;;;;5114298;28;20046;-75
2022/07/02 09:02:53;;;;;;;3.03;1.40;;;20.80;58.60;;;;;;5114240;28;20023;-75
2022/07/02 09:05:21;;;;;;;4.15;1.67;;;20.90;57.90;;;;;;5114176;28;20039;-75
2022/07/02 09:07:48;;;;;;;2.30;1.48;;;21.10;57.30;;;;;;5114246;28;20060;-75
2022/07/02 09:10:17;;;;;;;2.70;1.67;;;21.10;56.10;;;;;;5114100;28;20028;-75
2022/07/02 09:12:43;;;;;;;3.20;1.45;;;21.10;55.90;;;;;;5114079;28;20161;-75
2022/07/02 09:15:10;;;;;;;5.32;1.63;;;21.00;54.90;;;;;;5113935;28;20032;-75
2022/07/02 09:17:38;;;;;;;5.50;1.42;;;21.10;54.90;;;;;;5114129;28;20058;-75
2022/07/02 09:20:04;;;;;;;2.80;1.50;;;21.20;57.40;;;;;;5114112;28;20016;-75
2022/07/02 09:22:35;;;;;;;2.50;1.50;;;21.30;57.30;;;;;;5113923;28;20039;-76
2022/07/02 09:25:16;;;;;;;5.25;1.55;;;21.40;55.00;;;;;;5114009;28;20044;-74
2022/07/02 09:27:42;;;;;;;2.97;1.30;;;21.40;52.90;;;;;;5113922;28;20021;-74
2022/07/02 09:30:11;;;;;;;3.58;1.48;;;21.50;54.50;;;;;;5113789;28;20023;-73
2022/07/02 09:32:43;;;;;;;2.22;1.42;;;21.50;54.10;;;;;;5113613;28;20044;-72
2022/07/02 09:35:20;;;;;;;5.22;1.65;;;21.50;55.10;;;;;;5113689;28;20478;-71
2022/07/02 09:37:47;;;;;;;6.68;1.67;;;21.50;55.20;;;;;;5113686;28;20032;-72
2022/07/02 09:40:13;;;;;;;2.55;1.58;;;21.50;52.90;;;;;;5113646;28;20020;-72
2022/07/02 09:42:39;;;;;;;2.92;1.70;;;21.60;52.20;;;;;;5113589;28;20024;-73
2022/07/02 09:45:09;;;;;;;3.33;1.75;;;21.60;53.40;;;;;;5113011;28;20042;-73
2022/07/02 09:47:36;;;;;;;4.00;2.22;;;21.70;55.00;;;;;;5113448;28;20055;-73
2022/07/02 09:50:09;;;;;;;6.43;2.10;;;21.60;53.00;;;;;;5113508;28;20054;-78
2022/07/02 09:53:35;;;;;;;27.17;3.67;;;21.50;53.30;;;;;;5131596;27;20345;-76
2022/07/02 09:56:04;;;;;;;4.85;2.47;;;21.70;54.60;;;;;;5131392;28;20032;-75
2022/07/02 09:58:30;;;;;;;3.95;1.95;;;21.90;54.00;;;;;;5131343;28;20411;-74
2022/07/02 10:01:02;;;;;;;3.75;2.30;;;21.90;52.10;;;;;;5131440;28;20080;-74
2022/07/02 10:03:28;;;;;;;5.63;2.58;;;21.90;50.70;;;;;;5131490;28;20027;-75
2022/07/02 10:05:54;;;;;;;4.57;2.83;;;21.90;54.20;;;;;;5131184;28;20032;-76
2022/07/02 10:08:21;;;;;;;5.28;2.42;;;22.00;53.90;;;;;;5131151;28;20065;-72
2022/07/02 10:10:47;;;;;;;6.30;2.20;;;22.10;52.30;;;;;;5129977;28;20028;-72
2022/07/02 10:13:14;;;;;;;5.78;1.73;;;22.20;51.30;;;;;;5131011;28;20032;-74
2022/07/02 10:15:48;;;;;;;5.22;2.38;;;22.30;51.90;;;;;;5130991;28;20021;-76
2022/07/02 10:18:14;;;;;;;4.13;2.10;;;22.40;54.50;;;;;;5129919;28;20102;-75
2022/07/02 10:20:40;;;;;;;4.70;2.28;;;22.60;51.80;;;;;;5130848;28;20031;-75
2022/07/02 10:23:06;;;;;;;5.18;1.85;;;22.60;49.60;;;;;;5130827;28;20084;-75
2022/07/02 10:25:33;;;;;;;4.22;1.95;;;22.60;52.70;;;;;;5129834;28;20028;-75
2022/07/02 10:28:00;;;;;;;5.20;2.00;;;22.70;53.00;;;;;;5128224;28;20429;-75
2022/07/02 10:30:34;;;;;;;3.53;1.60;;;22.60;51.20;;;;;;5110304;28;20028;-75
2022/07/02 10:33:15;;;;;;;4.55;1.90;;;22.60;51.40;;;;;;5109347;28;20032;-74
2022/07/02 10:35:42;;;;;;;3.50;1.70;;;22.50;51.00;;;;;;5110175;28;20024;-75
2022/07/02 10:38:08;;;;;;;2.88;1.15;;;22.60;49.20;;;;;;5110139;28;20032;-75
2022/07/02 10:40:48;;;;;;;3.75;1.77;;;22.60;50.20;;;;;;5110054;28;20029;-74
2022/07/02 10:43:18;;;;;;;1.73;1.20;;;22.60;48.30;;;;;;5109211;28;20023;-74
2022/07/02 10:45:44;;;;;;;4.45;1.45;;;22.60;49.50;;;;;;5110099;28;20025;-74
2022/07/02 10:48:12;;;;;;;3.38;1.65;;;22.60;48.60;;;;;;5109991;28;20044;-74
2022/07/02 10:50:40;;;;;;;5.60;1.20;;;22.50;49.90;;;;;;5109909;28;20020;-74
2022/07/02 10:53:13;;;;;;;5.35;1.25;;;22.60;48.70;;;;;;5126254;28;20044;-74
2022/07/02 10:55:55;;;;;;;3.83;1.40;;;22.70;48.30;;;;;;5130196;28;20020;-74
2022/07/02 10:58:22;;;;;;;2.88;1.20;;;22.70;48.50;;;;;;5130331;28;20080;-74
2022/07/02 11:00:48;;;;;;;2.63;1.20;;;22.70;50.20;;;;;;5130206;28;20490;-74
2022/07/02 11:03:18;;;;;;;4.15;1.45;;;22.80;47.90;;;;;;5125590;28;20028;-75
2022/07/02 11:06:06;;;;;;;2.72;1.33;;;22.80;47.00;;;;;;5116473;28;20047;-74
2022/07/02 11:08:44;;;;;;;3.45;1.08;;;22.80;46.50;;;;;;5116378;28;20474;-76
2022/07/02 11:11:12;;;;;;;2.25;1.20;;;22.70;47.30;;;;;;5116174;28;20031;-75
2022/07/02 11:13:49;;;;;;;3.50;1.17;;;22.80;49.30;;;;;;5116209;28;20024;-74
2022/07/02 11:16:29;;;;;;;5.38;1.70;;;22.80;46.90;;;;;;5116336;28;20076;-75
2022/07/02 11:18:58;;;;;;;2.90;1.00;;;22.80;47.60;;;;;;5116176;28;20024;-75
2022/07/02 11:21:25;;;;;;;3.00;1.25;;;22.80;47.60;;;;;;5116127;28;20028;-75
2022/07/02 11:23:51;;;;;;;2.83;1.10;;;22.80;46.40;;;;;;5115989;28;20024;-74
2022/07/02 11:26:22;;;;;;;1.20;1.10;;;22.70;47.10;;;;;;5115996;28;20040;-74
2022/07/02 11:28:49;;;;;;;3.55;1.10;;;22.60;47.30;;;;;;5115956;28;20058;-75
2022/07/02 11:31:16;;;;;;;2.03;1.20;;;22.60;47.20;;;;;;5115826;28;20150;-75
2022/07/02 11:33:52;;;;;;;4.80;1.30;;;22.60;47.50;;;;;;5115884;28;20024;-75
2022/07/02 11:36:18;;;;;;;2.78;1.20;;;22.60;49.10;;;;;;5116019;28;20020;-75
2022/07/02 11:38:45;;;;;;;3.22;1.20;;;22.70;49.70;;;;;;5115799;28;20092;-75
2022/07/02 11:41:24;;;;;;;2.70;1.00;;;22.90;50.00;;;;;;5115689;28;20024;-75
2022/07/02 11:43:57;;;;;;;2.83;1.33;;;23.00;46.60;;;;;;5115677;28;20020;-75
2022/07/02 11:46:25;;;;;;;2.65;1.00;;;23.00;46.40;;;;;;5115773;28;20027;-75
2022/07/02 11:48:52;;;;;;;2.72;1.20;;;22.90;47.80;;;;;;5115644;28;20034;-75
2022/07/02 11:51:19;;;;;;;2.63;1.23;;;22.90;46.50;;;;;;5115263;28;20093;-75
2022/07/02 11:54:01;;;;;;;2.65;1.40;;;23.00;48.60;;;;;;5115374;28;20040;-75
2022/07/02 11:56:28;;;;;;;1.38;1.02;;;23.10;49.20;;;;;;5097588;28;20024;-74
2022/07/02 11:58:55;;;;;;;3.55;1.10;;;23.20;49.20;;;;;;5115408;28;20016;-74
2022/07/02 12:01:30;;;;;;;3.13;1.20;;;23.40;47.80;;;;;;5115302;28;20017;-75
2022/07/02 12:04:02;;;;;;;3.25;1.10;;;23.50;45.00;;;;;;5115352;28;20016;-75
2022/07/02 12:06:38;;;;;;;2.17;1.23;;;23.60;45.00;;;;;;5115263;28;20025;-75
2022/07/02 12:09:07;;;;;;;1.98;0.90;;;23.40;42.60;;;;;;5115230;28;20073;-75
2022/07/02 12:11:37;;;;;;;3.08;1.08;;;23.40;44.50;;;;;;5115046;28;20031;-75
2022/07/02 12:14:04;;;;;;;2.03;0.90;;;23.60;45.00;;;;;;5115176;28;20026;-75
2022/07/02 12:16:31;;;;;;;2.42;1.00;;;23.70;46.30;;;;;;5114191;28;20024;-75
2022/07/02 12:19:04;;;;;;;1.48;0.90;;;23.70;44.00;;;;;;5115023;28;20020;-74
2022/07/02 12:21:44;;;;;;;2.03;0.93;;;23.80;44.50;;;;;;5115088;28;20031;-74
2022/07/02 12:24:28;;;;;;;2.58;0.98;;;23.80;44.00;;;;;;5114891;28;20028;-74
2022/07/02 12:26:54;;;;;;;2.78;1.13;;;23.80;43.30;;;;;;5114878;28;20088;-74
2022/07/02 12:32:11;;;;;;;2.40;0.70;;;24.00;46.80;;;;;;5114836;28;20112;-74
2022/07/02 12:34:37;;;;;;;1.77;0.70;;;23.90;45.40;;;;;;5114692;28;20021;-74
2022/07/02 12:37:04;;;;;;;2.53;0.70;;;24.00;43.70;;;;;;5096771;28;20035;-74
2022/07/02 12:39:43;;;;;;;2.55;0.77;;;24.00;43.10;;;;;;5096608;28;20024;-74
2022/07/02 12:42:23;;;;;;;2.67;0.70;;;24.10;42.10;;;;;;5114493;28;20336;-74
2022/07/02 12:44:59;;;;;;;2.38;0.82;;;24.00;42.60;;;;;;5114446;28;20043;-74
2022/07/02 12:47:26;;;;;;;2.05;0.80;;;23.90;43.80;;;;;;5114478;28;20030;-75
2022/07/02 12:50:05;;;;;;;1.45;0.70;;;23.90;44.30;;;;;;5114375;28;20028;-74
2022/07/02 12:52:42;;;;;;;2.05;0.82;;;24.00;44.60;;;;;;5114106;28;20040;-74
2022/07/02 12:55:25;;;;;;;1.25;0.68;;;24.10;42.40;;;;;;5098126;28;20043;-75
2022/07/02 12:57:51;;;;;;;;;;;24.00;43.00;;;;;;5114831;28;20072;-75